Time;durP1;ratioP1;P1;durP2;ratioP2;P2;SDS_P1;SDS_P2;PMS_P1;PMS_P2;Temp;Humidity;BMP_temperature;BMP_pressure;BME280_temperature;BME280_humidity;BME280_pressure;Samples;Min_cycle;Max_cycle;Signal;HPM_P1;HPM_P2
2021/09/23 00:00:49;;;;;;;;;2.67;2.00;;;;;17.18;51.24;99053.03;4860096;28;102628;-81
2021/09/23 00:03:31;;;;;;;;;3.00;3.00;;;;;17.18;51.58;99062.06;4832632;28;109226;-81
2021/09/23 00:05:58;;;;;;;;;3.50;3.50;;;;;17.18;51.04;99050.31;4852073;28;103531;-81
2021/09/23 00:08:26;;;;;;;;;3.33;3.00;;;;;17.17;51.35;99040.44;4838723;28;104856;-81
2021/09/23 00:10:53;;;;;;;;;3.00;3.00;;;;;17.16;51.57;99036.88;4851864;28;102211;-81
2021/09/23 00:13:20;;;;;;;;;3.50;3.50;;;;;17.16;52.09;99038.75;4858785;28;103818;-81
2021/09/23 00:15:48;;;;;;;;;4.00;3.75;;;;;17.15;51.88;99035.22;4854943;28;105037;-81
2021/09/23 00:18:15;;;;;;;;;4.25;3.75;;;;;17.16;51.34;99030.56;4849058;28;103054;-81
2021/09/23 00:20:47;;;;;;;;;4.00;4.00;;;;;17.16;51.13;99036.03;4853873;28;103436;-81
2021/09/23 00:23:15;;;;;;;;;4.00;3.00;;;;;17.17;52.04;99022.13;4851501;28;104226;-81
2021/09/23 00:25:42;;;;;;;;;4.00;3.75;;;;;17.17;51.64;99029.50;4854989;28;103497;-81
2021/09/23 00:28:09;;;;;;;;;4.00;3.33;;;;;17.17;51.33;99033.06;4851276;28;102776;-81
2021/09/23 00:30:37;;;;;;;;;4.00;3.75;;;;;17.17;50.90;99021.31;4855141;28;102085;-81
2021/09/23 00:33:04;;;;;;;;;3.33;3.00;;;;;17.17;52.12;99008.47;4849579;28;104059;-81
2021/09/23 00:35:34;;;;;;;;;4.50;4.50;;;;;17.17;50.99;99021.31;4841055;28;102601;-81
2021/09/23 00:38:01;;;;;;;;;4.50;4.00;;;;;17.14;52.18;99013.56;4851041;28;102588;-81
2021/09/23 00:40:28;;;;;;;;;4.25;4.25;;;;;17.15;51.50;99017.97;4826100;28;102601;-81
2021/09/23 00:42:55;;;;;;;;;4.00;4.00;;;;;17.15;51.55;99023.44;4845320;28;104137;-81
2021/09/23 00:45:22;;;;;;;;;4.25;4.25;;;;;17.14;51.07;99019.03;4842026;28;104816;-81
2021/09/23 00:47:50;;;;;;;;;4.00;4.00;;;;;17.14;51.16;99011.69;4844466;28;108096;-81
2021/09/23 00:50:19;;;;;;;;;4.25;4.25;;;;;17.12;52.32;99010.22;4841142;28;102362;-81
2021/09/23 00:52:47;;;;;;;;;3.33;3.00;;;;;17.14;51.61;99010.84;4817336;28;104385;-81
2021/09/23 00:55:14;;;;;;;;;5.00;4.00;;;;;17.13;52.33;99011.91;4845776;28;102285;-81
2021/09/23 00:57:41;;;;;;;;;3.00;3.00;;;;;17.13;51.79;99011.91;4833608;28;105125;-81
2021/09/23 01:00:11;;;;;;;;;4.50;4.50;;;;;17.12;51.93;99013.81;4838230;28;102258;-81
2021/09/23 01:02:38;;;;;;;;;5.25;4.75;;;;;17.14;51.62;99010.84;4802670;28;110338;-81
2021/09/23 01:05:06;;;;;;;;;4.00;4.00;;;;;17.14;51.75;98995.28;4813824;28;102721;-81
2021/09/23 01:07:33;;;;;;;;;3.00;3.00;;;;;17.14;51.14;98997.19;4826570;28;103592;-81
2021/09/23 01:10:02;;;;;;;;;4.75;4.25;;;;;17.14;51.27;98994.44;4831555;28;102674;-81
2021/09/23 01:12:30;;;;;;;;;4.00;3.00;;;;;17.13;51.21;98992.78;4844195;28;104534;-81
2021/09/23 01:14:57;;;;;;;;;4.25;4.00;;;;;17.13;51.68;98990.88;4859716;28;102360;-81
2021/09/23 01:17:25;;;;;;;;;4.75;4.75;;;;;17.10;51.86;98991.38;4860894;28;102241;-81
2021/09/23 01:19:52;;;;;;;;;4.00;3.75;;;;;17.12;51.08;98991.09;4851448;28;102179;-81
2021/09/23 01:22:20;;;;;;;;;3.25;3.25;;;;;17.09;51.25;98994.31;4855461;28;108917;-81
2021/09/23 01:24:48;;;;;;;;;6.00;5.00;;;;;17.09;52.02;98992.41;4833314;28;102247;-81
2021/09/23 01:27:15;;;;;;;;;5.00;5.00;;;;;17.09;51.17;98997.03;4839919;28;102987;-81
2021/09/23 01:29:42;;;;;;;;;6.33;4.67;;;;;17.08;51.51;98993.47;4838725;28;102557;-81
2021/09/23 01:32:10;;;;;;;;;5.00;4.00;;;;;17.08;51.45;98984.44;4848332;28;111164;-81
2021/09/23 01:34:39;;;;;;;;;4.00;4.00;;;;;17.09;51.41;98980.66;4821954;28;102503;-81
2021/09/23 01:37:07;;;;;;;;;4.00;4.00;;;;;17.07;52.03;98975.41;4862336;28;102191;-81
2021/09/23 01:39:35;;;;;;;;;5.25;3.00;;;;;17.06;52.34;98973.78;4857002;28;105872;-81
2021/09/23 01:42:02;;;;;;;;;5.00;4.00;;;;;17.07;52.17;98982.78;4851191;28;104067;-81
2021/09/23 01:44:29;;;;;;;;;5.00;5.00;;;;;17.07;51.10;98980.88;4845307;28;102631;-81
2021/09/23 01:46:56;;;;;;;;;5.00;4.50;;;;;17.10;52.32;98974.13;4849017;28;102488;-81
2021/09/23 01:49:23;;;;;;;;;3.50;3.25;;;;;17.08;51.71;98952.50;4853191;28;102646;-81
2021/09/23 01:51:50;;;;;;;;;5.75;5.00;;;;;17.07;51.76;98947.25;4857074;28;111124;-81
2021/09/23 01:54:17;;;;;;;;;3.00;3.00;;;;;17.09;51.84;98947.88;4851099;28;102647;-81
2021/09/23 01:56:44;;;;;;;;;4.25;4.25;;;;;17.06;51.54;98940.16;4850126;28;102253;-81
2021/09/23 01:59:11;;;;;;;;;5.00;4.00;;;;;17.05;51.69;98941.22;4849211;28;102311;-81
2021/09/23 02:01:39;;;;;;;;;5.25;5.00;;;;;17.05;52.08;98938.47;4849693;28;104179;-81
2021/09/23 02:04:09;;;;;;;;;4.25;4.25;;;;;17.04;51.75;98932.19;4843001;28;104862;-81
2021/09/23 02:06:36;;;;;;;;;5.00;4.25;;;;;17.03;51.82;98929.66;4856373;28;102132;-81
2021/09/23 02:09:03;;;;;;;;;4.00;3.50;;;;;17.01;51.54;98923.63;4844075;28;105009;-81
2021/09/23 02:11:30;;;;;;;;;5.50;4.75;;;;;17.01;51.63;98929.09;4850882;28;104215;-81
2021/09/23 02:13:57;;;;;;;;;5.25;5.00;;;;;17.00;52.15;98932.88;4851306;28;104051;-81
2021/09/23 02:16:26;;;;;;;;;3.00;3.00;;;;;17.01;51.89;98921.72;4857014;28;102474;-81
2021/09/23 02:18:53;;;;;;;;;4.25;4.00;;;;;17.00;52.08;98917.31;4857017;28;102654;-81
2021/09/23 02:21:20;;;;;;;;;4.00;4.00;;;;;17.00;51.55;98916.50;4856817;28;104262;-81
2021/09/23 02:23:49;;;;;;;;;5.50;4.25;;;;;17.00;52.02;98930.16;4844945;28;102205;-81
2021/09/23 02:26:16;;;;;;;;;5.00;4.25;;;;;17.00;52.29;98921.94;4863943;28;102613;-81
2021/09/23 02:28:43;;;;;;;;;6.00;5.00;;;;;17.03;51.63;98907.81;4839020;28;102478;-81
2021/09/23 02:31:10;;;;;;;;;4.50;4.00;;;;;17.02;50.93;98904.25;4857120;28;104064;-81
2021/09/23 02:33:37;;;;;;;;;5.00;4.00;;;;;17.02;51.09;98906.97;4847701;28;110360;-81
2021/09/23 02:36:06;;;;;;;;;4.00;3.00;;;;;17.01;52.32;98899.03;4855094;28;102632;-81
2021/09/23 02:38:33;;;;;;;;;4.75;4.00;;;;;17.01;51.45;98909.97;4859881;28;102426;-81
2021/09/23 02:41:00;;;;;;;;;3.75;3.75;;;;;17.01;51.56;98918.16;4863214;28;104070;-81
2021/09/23 02:43:27;;;;;;;;;5.25;5.25;;;;;17.00;51.88;98900.09;4857806;28;102346;-81
2021/09/23 02:45:54;;;;;;;;;3.50;3.50;;;;;17.00;51.84;98916.50;4860245;28;102227;-81
2021/09/23 02:48:22;;;;;;;;;2.75;2.75;;;;;16.97;51.37;98906.03;4860158;28;103356;-81
2021/09/23 02:50:49;;;;;;;;;5.00;4.00;;;;;16.98;51.92;98913.13;4846965;28;104101;-81
2021/09/23 02:53:16;;;;;;;;;4.50;4.50;;;;;16.97;51.51;98900.56;4853942;28;102028;-81
2021/09/23 02:55:43;;;;;;;;;4.00;4.00;;;;;16.95;51.21;98909.84;4838252;28;104340;-81
2021/09/23 02:58:10;;;;;;;;;3.25;3.25;;;;;16.96;51.63;98913.41;4857060;28;102908;-81
2021/09/23 03:00:37;;;;;;;;;3.00;3.00;;;;;16.95;51.75;98900.81;4853844;28;104118;-81
2021/09/23 03:03:06;;;;;;;;;5.00;4.50;;;;;16.95;51.65;98903.53;4842580;28;102183;-81
2021/09/23 03:05:34;;;;;;;;;4.00;4.00;;;;;16.94;51.96;98896.41;4850285;28;105159;-81
2021/09/23 03:08:04;;;;;;;;;5.25;4.50;;;;;16.93;50.99;98898.28;4858337;28;102805;-81
2021/09/23 03:10:31;;;;;;;;;5.25;4.25;;;;;16.97;51.15;98889.66;4855336;28;104068;-81
2021/09/23 03:12:58;;;;;;;;;5.00;3.25;;;;;16.99;52.04;98898.41;4852558;28;105196;-81
2021/09/23 03:15:27;;;;;;;;;4.50;4.00;;;;;16.98;51.78;98905.78;4857853;28;102668;-81
2021/09/23 03:17:54;;;;;;;;;4.25;4.00;;;;;16.98;51.80;98900.31;4860885;28;102800;-81
2021/09/23 03:20:23;;;;;;;;;6.50;4.50;;;;;16.96;51.26;98899.75;4835735;28;104078;-81
2021/09/23 03:22:53;;;;;;;;;5.00;4.00;;;;;16.97;51.51;98901.41;4855676;28;102616;-81
2021/09/23 03:25:21;;;;;;;;;3.75;3.75;;;;;16.95;51.81;98892.59;4835988;28;102260;-81
2021/09/23 03:27:50;;;;;;;;;3.25;3.25;;;;;16.94;51.81;98890.94;4849108;28;104305;-81
2021/09/23 03:30:17;;;;;;;;;3.75;3.75;;;;;16.95;51.89;98892.59;4847661;28;104071;-81
2021/09/23 03:32:44;;;;;;;;;6.00;4.75;;;;;16.91;52.19;98875.84;4855535;28;102597;-81
2021/09/23 03:35:11;;;;;;;;;4.50;4.50;;;;;16.91;51.74;98889.50;4841898;28;102507;-81
2021/09/23 03:37:38;;;;;;;;;5.00;3.75;;;;;16.93;51.24;98894.75;4842147;28;105368;-81
2021/09/23 03:40:06;;;;;;;;;6.25;6.00;;;;;16.91;51.46;98894.97;4843016;28;104106;-81
2021/09/23 03:42:33;;;;;;;;;5.00;5.00;;;;;16.92;51.26;98904.00;4842758;28;102832;-81
2021/09/23 03:45:00;;;;;;;;;4.00;4.00;;;;;16.91;51.57;98903.19;4827655;28;102542;-81
2021/09/23 03:47:27;;;;;;;;;5.25;5.25;;;;;16.92;51.26;98904.00;4825518;28;102707;-81
2021/09/23 03:49:54;;;;;;;;;4.25;4.25;;;;;16.92;52.15;98896.66;4850815;28;111604;-81
2021/09/23 03:52:21;;;;;;;;;4.50;3.75;;;;;16.94;51.08;98897.22;4840850;28;102254;-81
2021/09/23 03:54:50;;;;;;;;;4.75;4.00;;;;;16.95;51.13;98898.06;4852796;28;102747;-81
2021/09/23 03:57:17;;;;;;;;;4.00;4.00;;;;;16.94;51.17;98891.78;4854988;28;102622;-81
2021/09/23 03:59:46;;;;;;;;;3.00;3.00;;;;;16.95;51.03;98887.13;4843450;28;109358;-81
2021/09/23 04:02:13;;;;;;;;;4.75;4.00;;;;;16.94;52.02;98872.66;4854426;28;102248;-80
2021/09/23 04:04:41;;;;;;;;;5.50;4.00;;;;;16.95;51.76;98884.41;4854796;28;102021;-81
2021/09/23 04:07:08;;;;;;;;;4.50;4.50;;;;;16.94;51.14;98874.53;4831835;28;102215;-81
2021/09/23 04:09:37;;;;;;;;;5.75;5.75;;;;;16.93;51.93;98886.56;4853057;28;104234;-81
2021/09/23 04:12:04;;;;;;;;;6.75;4.00;;;;;16.91;51.87;98880.47;4833629;28;102618;-81
2021/09/23 04:14:32;;;;;;;;;5.50;4.00;;;;;16.95;51.66;98871.59;4848282;28;102201;-81
2021/09/23 04:16:59;;;;;;;;;4.00;3.25;;;;;17.02;51.18;98862.47;4857556;28;103129;-81
2021/09/23 04:19:26;;;;;;;;;3.00;2.50;;;;;17.04;52.05;98868.50;4853216;28;109160;-81
2021/09/23 04:25:33;;;;;;;;;4.50;4.00;;;;;17.05;51.42;98867.44;4831338;28;102703;-82
2021/09/23 04:28:01;;;;;;;;;4.25;3.50;;;;;17.05;51.65;98864.72;4853257;28;109108;-81
2021/09/23 04:30:28;;;;;;;;;6.00;4.00;;;;;17.07;52.28;98862.56;4852350;28;104282;-82
2021/09/23 04:32:55;;;;;;;;;5.75;5.00;;;;;17.05;52.25;98860.09;4847933;28;102270;-81
2021/09/23 04:35:22;;;;;;;;;6.00;5.00;;;;;17.05;52.29;98856.50;4853549;28;102109;-81
2021/09/23 04:37:49;;;;;;;;;5.25;5.00;;;;;17.06;52.84;98855.44;4852713;28;102675;-82
2021/09/23 04:40:16;;;;;;;;;4.50;4.00;;;;;17.05;52.18;98854.63;4836411;28;105238;-81
2021/09/23 04:42:43;;;;;;;;;4.00;4.00;;;;;17.06;52.75;98844.53;4857170;28;102833;-81
2021/09/23 04:45:11;;;;;;;;;4.75;4.00;;;;;17.06;52.28;98860.91;4833279;28;102168;-82
2021/09/23 04:47:38;;;;;;;;;4.50;4.50;;;;;17.05;52.41;98859.25;4850917;28;104280;-81
2021/09/23 04:50:05;;;;;;;;;5.25;4.75;;;;;17.04;52.81;98852.09;4854136;28;104707;-82
2021/09/23 04:52:32;;;;;;;;;6.75;5.75;;;;;17.04;52.07;98857.56;4837714;28;102961;-81
2021/09/23 04:54:59;;;;;;;;;6.00;5.00;;;;;17.04;53.12;98854.84;4857080;28;102602;-81
2021/09/23 04:57:26;;;;;;;;;4.00;4.00;;;;;17.03;52.68;98844.97;4822278;28;102630;-81
2021/09/23 04:59:53;;;;;;;;;5.00;5.00;;;;;17.02;53.05;98841.41;4842809;28;104105;-81
2021/09/23 05:02:22;;;;;;;;;5.00;5.00;;;;;17.02;53.03;98837.88;4846277;28;102108;-81
2021/09/23 05:04:49;;;;;;;;;4.75;4.50;;;;;17.01;52.58;98839.78;4835076;28;103186;-81
2021/09/23 05:07:17;;;;;;;;;5.00;5.00;;;;;17.01;53.29;98836.19;4849074;28;102679;-81
2021/09/23 05:09:44;;;;;;;;;4.00;4.00;;;;;17.03;53.32;98839.50;4851310;28;104065;-82
2021/09/23 05:12:11;;;;;;;;;7.00;6.00;;;;;17.01;52.81;98847.13;4859816;28;102174;-81
2021/09/23 05:14:38;;;;;;;;;6.00;5.00;;;;;17.01;53.22;98841.66;4858414;28;103542;-82
2021/09/23 05:17:06;;;;;;;;;6.00;5.00;;;;;17.02;53.33;98843.34;4863181;28;102667;-82
2021/09/23 05:19:33;;;;;;;;;5.00;4.75;;;;;17.02;53.18;98837.88;4852596;28;104479;-82
2021/09/23 05:22:00;;;;;;;;;5.25;5.25;;;;;17.00;53.52;98832.63;4843450;28;102438;-81
2021/09/23 05:24:27;;;;;;;;;6.75;4.75;;;;;17.01;53.34;98838.94;4861637;28;103910;-80
2021/09/23 05:26:54;;;;;;;;;5.50;5.00;;;;;17.01;52.63;98841.66;4859064;28;105159;-81
2021/09/23 05:29:21;;;;;;;;;4.75;4.75;;;;;17.00;53.35;98840.81;4861530;28;104102;-81
2021/09/23 05:31:51;;;;;;;;;4.00;4.00;;;;;17.01;53.09;98847.13;4866937;28;102579;-82
2021/09/23 05:34:18;;;;;;;;;6.67;6.00;;;;;16.99;53.16;98835.59;4855544;28;102491;-81
2021/09/23 05:36:48;;;;;;;;;7.50;5.00;;;;;16.99;53.29;98838.31;4833109;28;103251;-82
2021/09/23 05:39:15;;;;;;;;;5.00;4.00;;;;;16.99;53.53;98832.84;4864988;28;104121;-81
2021/09/23 05:41:43;;;;;;;;;4.00;4.00;;;;;16.98;53.11;98826.56;4858385;28;102132;-82
2021/09/23 05:44:10;;;;;;;;;5.00;4.50;;;;;16.99;53.33;98827.41;4858771;28;105942;-82
2021/09/23 05:46:41;;;;;;;;;4.75;4.00;;;;;16.98;53.42;98823.00;4849617;28;104996;-82
2021/09/23 05:49:08;;;;;;;;;6.00;5.25;;;;;16.99;53.80;98825.50;4859453;28;104158;-82
2021/09/23 05:51:35;;;;;;;;;4.33;4.00;;;;;16.98;52.90;98820.25;4859079;28;102831;-82
2021/09/23 05:54:02;;;;;;;;;7.00;5.00;;;;;16.99;53.20;98828.22;4859002;28;102213;-81
2021/09/23 05:56:29;;;;;;;;;5.00;4.00;;;;;17.00;53.29;98823.59;4855833;28;103799;-82
2021/09/23 05:58:56;;;;;;;;;5.00;5.00;;;;;17.01;53.28;98830.72;4864598;28;104239;-81
2021/09/23 06:01:23;;;;;;;;;2.75;2.00;;;;;17.00;52.60;98824.44;4860290;28;102448;-82
2021/09/23 06:03:54;;;;;;;;;5.00;5.00;;;;;17.01;53.27;98822.53;4849559;28;102281;-82
2021/09/23 06:06:21;;;;;;;;;4.75;4.00;;;;;17.01;53.45;98817.06;4855776;28;102510;-81
2021/09/23 06:08:49;;;;;;;;;5.00;5.00;;;;;17.01;53.26;98819.81;4855836;28;104698;-81
2021/09/23 06:11:16;;;;;;;;;4.00;4.00;;;;;17.00;53.91;98813.50;4855961;28;104120;-82
2021/09/23 06:13:43;;;;;;;;;4.00;4.00;;;;;17.02;53.59;98821.47;4850871;28;104537;-82
2021/09/23 06:16:10;;;;;;;;;5.00;5.00;;;;;17.01;53.33;98814.34;4860544;28;102722;-81
2021/09/23 06:18:38;;;;;;;;;4.50;3.75;;;;;17.01;53.58;98808.88;4853581;28;103936;-81
2021/09/23 06:21:05;;;;;;;;;5.00;4.50;;;;;17.01;53.67;98800.69;4865089;28;102563;-81
2021/09/23 06:23:34;;;;;;;;;5.00;4.50;;;;;17.00;52.85;98801.75;4858668;28;102180;-81
2021/09/23 06:26:01;;;;;;;;;6.00;4.75;;;;;16.98;52.94;98804.72;4857908;28;102362;-82
2021/09/23 06:28:30;;;;;;;;;4.50;4.50;;;;;16.99;52.81;98805.53;4857287;28;104150;-81
2021/09/23 06:30:59;;;;;;;;;4.75;4.25;;;;;17.00;53.89;98804.47;4856042;28;103213;-81
2021/09/23 06:33:26;;;;;;;;;5.00;4.00;;;;;16.99;52.81;98805.53;4834477;28;102747;-82
2021/09/23 06:35:53;;;;;;;;;3.75;3.75;;;;;16.98;53.15;98815.63;4845345;28;102672;-82
2021/09/23 06:38:20;;;;;;;;;5.25;4.00;;;;;17.00;53.93;98808.03;4851251;28;104056;-81
2021/09/23 06:40:47;;;;;;;;;6.25;5.50;;;;;17.01;53.52;98811.63;4853726;28;102235;-81
2021/09/23 06:43:15;;;;;;;;;5.00;4.50;;;;;17.01;53.32;98798.78;4859936;28;102672;-82
2021/09/23 06:45:42;;;;;;;;;4.75;4.00;;;;;17.02;53.22;98803.16;4848341;28;103284;-82
2021/09/23 06:48:09;;;;;;;;;4.00;4.00;;;;;17.02;53.61;98814.09;4846608;28;103801;-81
2021/09/23 06:50:36;;;;;;;;;4.75;4.75;;;;;17.02;53.56;98802.34;4852651;28;102516;-81
2021/09/23 06:53:03;;;;;;;;;4.00;4.00;;;;;17.02;52.96;98794.16;4846485;28;104153;-82
2021/09/23 06:55:30;;;;;;;;;4.00;4.00;;;;;17.01;53.30;98797.94;4845368;28;102710;-81
2021/09/23 06:57:57;;;;;;;;;5.25;5.25;;;;;17.01;52.71;98796.06;4841746;28;104105;-81
2021/09/23 07:00:26;;;;;;;;;3.00;3.00;;;;;17.02;53.03;98788.69;4852058;28;102204;-81
2021/09/23 07:02:53;;;;;;;;;3.00;3.00;;;;;17.02;53.34;98789.50;4859394;28;102724;-81
2021/09/23 07:05:21;;;;;;;;;3.25;3.25;;;;;17.01;53.88;98787.88;4857962;28;102674;-81
2021/09/23 07:07:48;;;;;;;;;4.00;4.00;;;;;17.01;53.39;98776.09;4858374;28;104522;-81
2021/09/23 07:10:15;;;;;;;;;3.00;3.00;;;;;17.01;53.24;98770.63;4860822;28;102603;-82
2021/09/23 07:12:42;;;;;;;;;3.00;3.00;;;;;17.00;53.42;98761.59;4863925;28;105656;-82
2021/09/23 07:15:09;;;;;;;;;3.00;3.00;;;;;17.02;53.11;98759.44;4839943;28;102805;-82
2021/09/23 07:17:36;;;;;;;;;5.25;5.00;;;;;17.02;52.72;98753.19;4865489;28;104092;-81
2021/09/23 07:20:04;;;;;;;;;5.00;4.00;;;;;17.02;52.79;98750.44;4859782;28;103278;-81
2021/09/23 07:22:31;;;;;;;;;3.00;3.00;;;;;17.02;52.71;98745.78;4837747;28;102538;-82
2021/09/23 07:24:58;;;;;;;;;5.25;4.50;;;;;17.02;53.60;98756.72;4851239;28;102288;-81
2021/09/23 07:27:26;;;;;;;;;5.00;5.00;;;;;17.04;53.61;98761.94;4853997;28;104134;-81
2021/09/23 07:29:53;;;;;;;;;6.00;5.50;;;;;17.03;52.87;98758.38;4851640;28;102226;-81
2021/09/23 07:32:22;;;;;;;;;3.00;2.33;;;;;17.04;53.37;98765.53;4817080;28;102373;-82
2021/09/23 07:34:50;;;;;;;;;5.00;4.25;;;;;17.03;53.08;98763.00;4851527;28;102228;-81
2021/09/23 07:37:17;;;;;;;;;3.50;3.50;;;;;17.04;53.57;98759.22;4839416;28;103891;-81
2021/09/23 07:39:50;;;;;;;;;2.75;2.75;;;;;17.04;52.81;98762.78;4862070;28;102589;-81
2021/09/23 07:42:17;;;;;;;;;5.25;4.00;;;;;17.05;53.39;98763.63;4854074;28;103485;-82
2021/09/23 07:44:45;;;;;;;;;4.25;4.25;;;;;17.04;52.79;98759.22;4832802;28;102625;-82
2021/09/23 07:47:12;;;;;;;;;4.00;4.00;;;;;17.04;53.12;98760.06;4850806;28;104520;-81
2021/09/23 07:49:39;;;;;;;;;3.25;3.25;;;;;17.04;53.31;98760.06;4849348;28;102473;-82
2021/09/23 07:52:06;;;;;;;;;4.00;3.00;;;;;17.04;52.29;98770.97;4846365;28;103168;-81
2021/09/23 07:54:33;;;;;;;;;3.75;3.00;;;;;17.06;52.76;98768.03;4854214;28;102623;-81
2021/09/23 07:57:00;;;;;;;;;5.00;4.00;;;;;17.04;53.39;98757.31;4848445;28;104156;-82
2021/09/23 07:59:28;;;;;;;;;5.33;4.33;;;;;17.04;52.92;98757.31;4831197;28;102393;-82
2021/09/23 08:01:55;;;;;;;;;2.50;2.50;;;;;17.07;52.93;98753.28;4844707;28;102513;-82
2021/09/23 08:04:23;;;;;;;;;4.00;4.00;;;;;17.07;53.45;98758.72;4856225;28;102666;-81
2021/09/23 08:06:50;;;;;;;;;3.50;3.25;;;;;17.06;53.42;98752.47;4857914;28;104365;-82
2021/09/23 08:09:17;;;;;;;;;4.50;4.00;;;;;17.07;52.84;98748.63;4859818;28;102481;-82
2021/09/23 08:11:46;;;;;;;;;3.00;3.00;;;;;17.07;52.80;98756.84;4858577;28;102631;-81
2021/09/23 08:14:13;;;;;;;;;4.50;4.00;;;;;17.08;53.16;98752.22;4861278;28;102646;-81
2021/09/23 08:16:41;;;;;;;;;3.00;2.67;;;;;17.07;52.64;98759.56;4856353;28;104266;-82
2021/09/23 08:19:08;;;;;;;;;4.50;4.00;;;;;17.08;52.83;98753.03;4863434;28;102044;-81
2021/09/23 08:21:36;;;;;;;;;5.75;5.00;;;;;17.07;52.78;98734.97;4860193;28;102218;-82
2021/09/23 08:24:03;;;;;;;;;4.50;3.00;;;;;17.08;53.04;98741.28;4842430;28;102292;-81
2021/09/23 08:26:31;;;;;;;;;3.00;3.00;;;;;17.10;52.78;98741.88;4857611;28;104113;-81
2021/09/23 08:28:58;;;;;;;;;4.00;4.00;;;;;17.09;52.90;98741.03;4862147;28;102592;-81
2021/09/23 08:31:25;;;;;;;;;5.00;5.00;;;;;17.09;53.02;98745.69;4854651;28;104848;-81
2021/09/23 08:33:52;;;;;;;;;2.50;2.50;;;;;17.09;52.52;98746.50;4856204;28;102537;-81
2021/09/23 08:36:19;;;;;;;;;3.75;3.00;;;;;17.11;52.61;98738.09;4866244;28;104171;-82
2021/09/23 08:38:47;;;;;;;;;4.00;3.00;;;;;17.11;53.46;98735.34;4855639;28;102409;-82
2021/09/23 08:41:14;;;;;;;;;3.00;3.00;;;;;17.10;52.47;98730.94;4834951;28;110669;-82
2021/09/23 08:43:41;;;;;;;;;3.00;2.67;;;;;17.11;52.91;98727.16;4862644;28;102720;-81
2021/09/23 08:46:09;;;;;;;;;3.67;3.00;;;;;17.12;52.98;98728.78;4835031;28;104153;-81
2021/09/23 08:48:36;;;;;;;;;3.00;3.00;;;;;17.14;52.88;98718.47;4860367;28;102455;-81
2021/09/23 08:51:03;;;;;;;;;3.33;2.00;;;;;17.11;52.31;98718.97;4861549;28;102516;-81
2021/09/23 08:53:31;;;;;;;;;4.00;3.00;;;;;17.13;53.05;98727.72;4844910;28;102709;-82
2021/09/23 08:55:58;;;;;;;;;3.00;3.00;;;;;17.13;53.25;98716.81;4836051;28;104157;-82
2021/09/23 08:58:25;;;;;;;;;4.00;4.00;;;;;17.13;53.23;98720.38;4856675;28;102106;-82
2021/09/23 09:01:18;;;;;;;;;3.00;3.00;;;;;17.14;53.12;98723.94;4856784;28;102473;-81
2021/09/23 09:03:46;;;;;;;;;3.00;3.00;;;;;17.12;52.67;98717.88;4843567;28;102730;-81
2021/09/23 09:06:14;;;;;;;;;3.50;3.00;;;;;17.14;52.38;98719.31;4870126;28;104226;-81
2021/09/23 09:08:42;;;;;;;;;4.00;3.67;;;;;17.15;53.20;98722.88;4859475;28;103424;-82
2021/09/23 09:11:11;;;;;;;;;5.00;3.75;;;;;17.15;53.10;98717.41;4862179;28;103349;-81
2021/09/23 09:13:42;;;;;;;;;4.00;3.00;;;;;17.15;52.50;98709.22;4863248;28;102181;-82
2021/09/23 09:16:20;;;;;;;;;3.00;2.00;;;;;17.15;52.52;98717.41;4850541;28;109420;-82
2021/09/23 09:18:48;;;;;;;;;3.00;3.00;;;;;17.15;52.22;98711.94;4856680;28;102311;-82
2021/09/23 09:21:17;;;;;;;;;4.75;3.25;;;;;17.15;52.24;98701.00;4848469;28;102680;-82
2021/09/23 09:23:49;;;;;;;;;3.50;3.00;;;;;17.16;53.35;98695.28;4851001;28;103236;-82
2021/09/23 09:26:20;;;;;;;;;3.00;3.00;;;;;17.17;52.08;98694.22;4858817;28;104122;-82
2021/09/23 09:28:49;;;;;;;;;3.00;3.00;;;;;17.19;52.85;98702.19;4820818;28;102092;-82
2021/09/23 09:31:16;;;;;;;;;3.00;3.00;;;;;17.19;52.29;98696.72;4825753;28;102837;-82
2021/09/23 09:33:45;;;;;;;;;4.75;3.00;;;;;17.18;52.72;98695.88;4861143;28;102475;-82
2021/09/23 09:36:31;;;;;;;;;2.50;2.50;;;;;17.21;52.33;98683.63;4840218;28;104287;-82
2021/09/23 09:39:01;;;;;;;;;3.75;3.00;;;;;17.21;52.04;98679.00;4835043;28;102465;-81
2021/09/23 09:41:30;;;;;;;;;3.00;2.75;;;;;17.22;52.02;98671.63;4851166;28;102312;-81
2021/09/23 09:43:58;;;;;;;;;3.00;3.00;;;;;17.22;53.31;98674.38;4853491;28;102453;-81
2021/09/23 09:46:27;;;;;;;;;4.00;3.50;;;;;17.22;52.93;98674.38;4859080;28;104115;-82
2021/09/23 09:48:55;;;;;;;;;2.00;2.00;;;;;17.22;52.41;98663.44;4861450;28;102621;-81
2021/09/23 09:51:43;;;;;;;;;2.00;2.00;;;;;17.23;52.78;98665.94;4861079;28;102643;-82
2021/09/23 09:54:11;;;;;;;;;3.00;3.00;;;;;17.23;53.19;98651.44;4859555;28;102846;-82
2021/09/23 09:56:39;;;;;;;;;2.00;2.00;;;;;17.24;52.31;98650.38;4850407;28;104073;-82
2021/09/23 09:59:17;;;;;;;;;2.25;2.25;;;;;17.23;53.29;98643.25;4848514;28;102612;-81
2021/09/23 10:01:50;;;;;;;;;3.75;2.00;;;;;17.24;52.90;98642.19;4839498;28;102695;-82
2021/09/23 10:04:19;;;;;;;;;3.75;3.50;;;;;17.25;52.82;98638.34;4858637;28;102662;-82
2021/09/23 10:06:47;;;;;;;;;4.75;3.00;;;;;17.25;52.62;98641.09;4864150;28;104103;-82
2021/09/23 10:09:15;;;;;;;;;2.00;2.00;;;;;17.26;52.26;98653.69;4844048;28;102491;-82
2021/09/23 10:11:44;;;;;;;;;2.00;2.00;;;;;17.27;52.73;98644.41;4861275;28;102157;-82
2021/09/23 10:14:12;;;;;;;;;2.75;2.75;;;;;17.27;51.92;98644.41;4867564;28;102369;-82
2021/09/23 10:16:39;;;;;;;;;2.00;2.00;;;;;17.28;51.89;98632.41;4861298;28;104887;-81
2021/09/23 10:19:07;;;;;;;;;1.67;1.67;;;;;17.28;52.00;98624.22;4848220;28;102612;-82
2021/09/23 10:21:34;;;;;;;;;3.00;3.00;;;;;17.27;52.35;98622.56;4851160;28;103945;-82
2021/09/23 10:24:01;;;;;;;;;1.00;1.00;;;;;17.28;52.40;98619.59;4861734;28;103288;-82
2021/09/23 10:26:31;;;;;;;;;3.00;3.00;;;;;17.29;52.35;98617.69;4836322;28;103439;-81
2021/09/23 10:28:59;;;;;;;;;1.75;1.75;;;;;17.29;52.30;98620.41;4848630;28;104217;-82
2021/09/23 10:31:32;;;;;;;;;3.00;3.00;;;;;17.28;52.62;98618.75;4826314;28;102683;-82
2021/09/23 10:34:00;;;;;;;;;2.00;2.00;;;;;17.29;52.68;98615.75;4861342;28;103609;-82
2021/09/23 10:36:31;;;;;;;;;2.00;2.00;;;;;17.29;52.94;98587.63;4868574;28;104093;-82
2021/09/23 10:39:04;;;;;;;;;3.00;2.67;;;;;17.30;52.81;98575.59;4861886;28;102129;-82
2021/09/23 10:41:32;;;;;;;;;3.00;2.00;;;;;17.29;52.67;98582.16;4832340;28;102510;-82
2021/09/23 10:44:00;;;;;;;;;1.33;1.33;;;;;17.29;52.17;98598.56;4865798;28;111529;-82
2021/09/23 10:46:27;;;;;;;;;2.75;2.75;;;;;17.30;51.83;98590.09;4840734;28;103893;-82
2021/09/23 10:48:55;;;;;;;;;2.00;2.00;;;;;17.31;53.11;98586.28;4859970;28;102579;-82
2021/09/23 10:51:23;;;;;;;;;3.25;3.00;;;;;17.31;52.09;98582.72;4842786;28;102276;-82
2021/09/23 10:53:56;;;;;;;;;3.00;2.33;;;;;17.32;52.33;98571.56;4860981;28;105588;-82
2021/09/23 10:56:24;;;;;;;;;2.00;2.00;;;;;17.32;52.31;98573.47;4855045;28;104073;-82
2021/09/23 10:58:51;;;;;;;;;3.00;2.00;;;;;17.33;52.03;98578.69;4861606;28;102555;-82
2021/09/23 11:01:25;;;;;;;;;2.00;2.00;;;;;17.33;52.16;98569.66;4854932;28;102691;-82
2021/09/23 11:03:56;;;;;;;;;1.67;1.67;;;;;17.33;52.00;98556.00;4865403;28;102465;-82
2021/09/23 11:06:37;;;;;;;;;3.33;3.00;;;;;17.34;52.00;98553.00;4842362;28;104069;-82
2021/09/23 11:09:24;;;;;;;;;3.00;3.00;;;;;17.33;52.52;98551.34;4849225;28;102642;-82
2021/09/23 11:11:53;;;;;;;;;1.00;1.00;;;;;17.34;52.96;98558.47;4856329;28;102374;-82
2021/09/23 11:14:21;;;;;;;;;2.67;2.00;;;;;17.34;52.98;98546.69;4844186;28;102724;-82
2021/09/23 11:16:52;;;;;;;;;3.75;3.25;;;;;17.34;52.49;98541.22;4856264;28;104227;-82
2021/09/23 11:19:21;;;;;;;;;2.00;1.00;;;;;17.35;52.34;98545.63;4839089;28;102674;-81
2021/09/23 11:21:51;;;;;;;;;2.75;2.50;;;;;17.35;52.01;98531.97;4865073;28;102682;-82
2021/09/23 11:24:19;;;;;;;;;2.00;2.00;;;;;17.34;52.86;98533.03;4853285;28;102815;-81
2021/09/23 11:26:46;;;;;;;;;2.33;2.00;;;;;17.35;52.05;98524.59;4837399;28;106056;-82
2021/09/23 11:29:13;;;;;;;;;2.00;2.00;;;;;17.36;52.99;98519.97;4842528;28;103875;-82
2021/09/23 11:31:52;;;;;;;;;3.33;2.00;;;;;17.37;51.78;98516.16;4853764;28;102613;-82